MET'MAP v2.0
soon released !

Expected late october,
this new version will be
more efficient, smarter,
and hosted on a brand new
server x3 powerfull...
...and still free !


Not compatible ?
Try the mobile version !

LOG IN : | Subscribe | Disclaimer | Who is Orbifly ? |
ICAO code :

TAF - LFRL Lanveoc Poulmic - 21 Jan 2020 21:03 UTC
Data Sources :     NOAA   


- Airport Elevation : 287 ft
- No reported NOTAMs.


LFRL - Lanveoc Poulmic

Latest METAR recorded : 2020/01/21 19:30 LFRL 211930Z AUTO 05009KT 020V080 CAVOK 05/02 Q1038 NOSIG
NO TAF


MET'MAP, your aeronautical weather chart ! - Copyright ORBIFLY December 2007

Programming & Development : Alexandra Zaïnal
Co-Developer : Marc-Olivier Méhu
Technical & hardware support : Manuel Goepfert
Concept & Financing : Baudouin d'Aumeries